Aeroporto :
LOGIN :

Iscrizione | Disclaimer

   EN    FR    IT 

 










Sommario :    VFR   VFR Marginale   IFR   IFR Intensivo   IFR Molto Intensivo
Visibilità : 
Base nubi : 
>= 8 km
>= 3000ft
5 / 8 km
1000 / 3000 ft
1500m / 5 km
500 / 1000 ft
800 / 1500m
200 / 500 ft
< 800m
< 200 ft
Simboli :   Temporali  Nebbia  Neve Forte  Precipitazioni Forti  Vento > 20 kt
SIGMETs :   Varie  Temporali  Ghiacco  Turbolenza  Onda orograficha  Ceneri Vulcaniche






- Altitudine del aeroporto : 13 ft
- Codice IATA : SNR


LFRZ - St-Nazaire

ULTIMO METAR :
  • 061030Z AUTO 33007KT 280V010 9999 BKN038 18/11 Q1025 NOSIG

METARs OBSOLETI :
  • 061000Z AUTO 33007KT 270V030 9999 BKN038 19/11 Q1025 NOSIG
  • 060930Z AUTO 34007KT 300V010 9999 SCT033 17/10 Q1025 NOSIG
  • 060900Z AUTO 33009KT 290V010 9999 FEW030 17/10 Q1025 NOSIG
  • 060830Z AUTO 34008KT 290V020 CAVOK 17/10 Q1025 NOSIG
  • 060800Z AUTO 33010KT 300V360 CAVOK 16/10 Q1024 NOSIG

TAF TAF LFRZ
Valido dal 06 a 06 ore il 07 a 06 ore UTC


060500Z 0606/0706 30006KT CAVOK
BECMG 0618/0620 03010KT



MetMap, La meteo Aeronautica in un colpo d'occhio ! - Copyright ORBIFLY Dicembre 2007 - Disclaimer

ORBIFLY MET'MAP TEAM :

Programmazione e sviluppo : Alexandra Zaïnal
Concezione : Baudouin d'Aumeries
Aiuto per la programmazione : Marc-Olivier Méhu
Supporto tecnico e logistico : Manuel Goepfert
Aiuto per la traduzione : Arnaldo La Scala

Contatto : metmap@orbifly.com




FONTI E CREDITI :

   NOAA